Time;durP1;ratioP1;P1;durP2;ratioP2;P2;SDS_P1;SDS_P2;PMS_P1;PMS_P2;Temp;Humidity;BMP_temperature;BMP_pressure;BME280_temperature;BME280_humidity;BME280_pressure;Samples;Min_cycle;Max_cycle;Signal;HPM_P1;HPM_P2
2023/08/05 00:00:27;;;;;;;12.30;6.18;;;;;;;;;;5056677;28;20044;-72
2023/08/05 00:02:53;;;;;;;11.68;6.22;;;;;;;;;;5056396;28;20044;-72
2023/08/05 00:05:20;;;;;;;13.15;5.70;;;;;;;;;;5056602;28;20033;-72
2023/08/05 00:07:46;;;;;;;14.13;5.57;;;;;;;;;;5073109;28;20085;-72
2023/08/05 00:10:12;;;;;;;16.98;6.07;;;;;;;;;;5073220;28;20386;-72
2023/08/05 00:12:38;;;;;;;14.52;6.18;;;;;;;;;;5072852;28;20044;-72
2023/08/05 00:15:04;;;;;;;18.77;6.00;;;;;;;;;;5072568;28;20040;-72
2023/08/05 00:17:30;;;;;;;14.07;6.25;;;16.60;99.90;;;;;;5073307;28;20362;-72
2023/08/05 00:19:56;;;;;;;13.35;6.05;;;;;;;;;;5056332;28;20043;-72
2023/08/05 00:22:22;;;;;;;16.95;5.93;;;;;;;;;;5072826;28;20037;-72
2023/08/05 00:24:48;;;;;;;14.25;6.10;;;;;;;;;;5056238;28;20052;-71
2023/08/05 00:27:14;;;;;;;12.68;5.97;;;;;;;;;;5056412;28;20123;-71
2023/08/05 00:29:40;;;;;;;13.95;5.82;;;;;;;;;;5072807;28;20067;-72
2023/08/05 00:32:06;;;;;;;15.35;6.07;;;14.90;99.90;;;;;;5055097;28;20040;-72
2023/08/05 00:34:34;;;;;;;14.52;6.75;;;;;;;;;;5072684;28;20048;-71
2023/08/05 00:37:00;;;;;;;12.98;6.38;;;;;;;;;;5055976;28;20091;-72
2023/08/05 00:39:26;;;;;;;16.45;6.57;;;;;;;;;;5070098;28;20048;-70
2023/08/05 00:41:52;;;;;;;19.38;6.60;;;;;;;;;;5055385;28;20064;-70
2023/08/05 00:44:18;;;;;;;19.30;6.05;;;;;;;;;;5038496;28;20475;-70
2023/08/05 00:46:44;;;;;;;15.57;6.55;;;;;;;;;;5055956;28;20041;-72
2023/08/05 00:49:11;;;;;;;18.02;7.10;;;;;;;;;;5072369;28;20040;-71
2023/08/05 00:51:37;;;;;;;17.30;7.55;;;;;;;;;;5072421;28;20501;-71
2023/08/05 00:54:04;;;;;;;18.20;7.03;;;;;;;;;;5072427;28;20085;-72
2023/08/05 00:56:30;;;;;;;15.70;7.40;;;;;;;;;;5055125;28;20182;-72
2023/08/05 00:58:56;;;;;;;15.00;6.85;;;;;;;;;;5055449;28;20069;-72
2023/08/05 01:01:22;;;;;;;19.48;7.25;;;;;;;;;;5086592;28;20032;-72
2023/08/05 01:03:49;;;;;;;17.73;7.65;;;;;;;;;;5072111;28;20127;-72
2023/08/05 01:06:16;;;;;;;13.93;7.15;;;15.10;99.90;;;;;;5055384;28;20367;-71
2023/08/05 01:08:43;;;;;;;20.95;7.78;;;15.20;99.90;;;;;;5071996;28;20047;-72
2023/08/05 01:11:11;;;;;;;22.13;7.70;;;;;;;;;;5038736;28;20032;-71
2023/08/05 01:13:39;;;;;;;14.82;7.40;;;;;;;;;;5055851;28;20097;-71
2023/08/05 01:16:05;;;;;;;17.98;7.82;;;;;;;;;;5071948;28;20091;-71
2023/08/05 01:18:33;;;;;;;16.95;7.68;;;15.30;99.90;;;;;;5055925;28;20044;-71
2023/08/05 01:21:01;;;;;;;21.92;8.40;;;;;;;;;;5072310;28;20040;-71
2023/08/05 01:23:27;;;;;;;20.30;7.63;;;;;;;;;;5055044;28;20036;-71
2023/08/05 01:25:53;;;;;;;16.77;7.28;;;;;;;;;;5071370;28;20123;-71
2023/08/05 01:28:21;;;;;;;16.48;7.07;;;15.30;99.90;;;;;;5054917;28;20044;-72
2023/08/05 01:30:48;;;;;;;25.42;8.85;;;15.30;99.90;;;;;;5052600;28;20036;-71
2023/08/05 01:33:15;;;;;;;19.67;8.43;;;;;;;;;;5054603;28;20048;-71
2023/08/05 01:35:47;;;;;;;16.48;8.43;;;;;;;;;;5071620;28;20037;-72
2023/08/05 01:38:13;;;;;;;23.33;7.63;;;;;;;;;;5071148;28;20047;-72
2023/08/05 01:40:40;;;;;;;21.67;7.55;;;;;;;;;;5071721;28;20390;-72
2023/08/05 01:43:06;;;;;;;16.85;8.20;;;;;;;;;;5071429;28;20068;-72
2023/08/05 01:45:32;;;;;;;14.18;7.38;;;;;;;;;;5038651;28;20071;-72
2023/08/05 01:47:58;;;;;;;18.13;7.88;;;;;;;;;;5055025;28;20043;-72
2023/08/05 01:50:24;;;;;;;17.30;7.63;;;;;;;;;;5054596;28;20032;-72
2023/08/05 01:52:51;;;;;;;25.10;8.10;;;;;;;;;;5054214;28;20492;-71
2023/08/05 01:55:18;;;;;;;16.33;7.63;;;;;;;;;;5071011;28;20521;-72
2023/08/05 01:57:44;;;;;;;20.90;8.30;;;;;;;;;;5071092;28;20053;-71
2023/08/05 02:00:10;;;;;;;19.55;8.27;;;;;;;;;;5071074;28;20037;-71
2023/08/05 02:02:36;;;;;;;22.85;8.48;;;;;;;;;;5054635;28;20036;-71
2023/08/05 02:05:02;;;;;;;18.23;8.43;;;;;;;;;;5070674;28;20071;-71
2023/08/05 02:07:28;;;;;;;18.30;8.02;;;;;;;;;;5071201;28;20166;-71
2023/08/05 02:09:54;;;;;;;18.35;8.30;;;;;;;;;;5070665;28;20107;-71
2023/08/05 02:12:20;;;;;;;14.05;7.47;;;;;;;;;;5054068;28;20123;-71
2023/08/05 02:14:47;;;;;;;17.58;8.57;;;;;;;;;;5070673;28;20502;-72
2023/08/05 02:17:13;;;;;;;24.08;9.48;;;;;;;;;;5071135;28;20409;-71
2023/08/05 02:19:39;;;;;;;16.38;8.02;;;;;;;;;;5054212;28;20049;-72
2023/08/05 02:22:05;;;;;;;15.02;7.50;;;;;;;;;;5070768;28;20445;-72
2023/08/05 02:24:31;;;;;;;22.90;7.47;;;;;;;;;;5070449;28;20070;-71
2023/08/05 02:26:57;;;;;;;24.25;8.32;;;;;;;;;;5054345;28;20066;-72
2023/08/05 02:29:23;;;;;;;23.27;8.27;;;;;;;;;;5054126;28;20032;-71
2023/08/05 02:31:49;;;;;;;16.92;7.43;;;;;;;;;;5070452;28;20044;-71
2023/08/05 02:34:15;;;;;;;18.80;7.13;;;;;;;;;;5070032;28;20114;-71
2023/08/05 02:36:41;;;;;;;19.30;7.32;;;;;;;;;;5053907;28;20040;-72
2023/08/05 02:39:07;;;;;;;20.38;8.35;;;;;;;;;;5070148;28;20122;-72
2023/08/05 02:41:33;;;;;;;17.17;7.80;;;;;;;;;;5070365;28;20482;-72
2023/08/05 02:43:59;;;;;;;17.98;8.52;;;;;;;;;;5070431;28;20052;-71
2023/08/05 02:46:25;;;;;;;17.90;7.78;;;;;;;;;;5070679;28;20171;-72
2023/08/05 02:48:52;;;;;;;21.75;7.95;;;;;;;;;;5054175;28;20394;-72
2023/08/05 02:51:18;;;;;;;22.08;8.40;;;;;;;;;;5070522;28;20052;-71
2023/08/05 02:53:44;;;;;;;19.67;8.15;;;15.40;99.90;;;;;;5053904;28;20494;-71
2023/08/05 02:56:10;;;;;;;16.50;8.60;;;;;;;;;;5070278;28;20051;-72
2023/08/05 02:58:36;;;;;;;23.77;8.63;;;;;;;;;;5070262;28;20045;-72
2023/08/05 03:01:09;;;;;;;19.45;8.50;;;15.40;99.90;;;;;;5070289;28;20044;-72
2023/08/05 03:03:37;;;;;;;23.25;7.95;;;15.50;99.90;;;;;;5070039;28;20044;-72
2023/08/05 03:06:04;;;;;;;19.20;8.68;;;;;;;;;;5071388;28;20119;-72
2023/08/05 03:08:30;;;;;;;16.27;8.13;;;;;;;;;;5057536;28;20051;-71
2023/08/05 03:10:58;;;;;;;16.63;7.53;;;15.60;99.90;;;;;;5074156;28;20043;-71
2023/08/05 03:13:24;;;;;;;25.60;9.27;;;;;;;;;;5071935;28;20131;-72
2023/08/05 03:15:50;;;;;;;23.10;8.75;;;;;;;;;;5074043;28;20045;-72
2023/08/05 03:18:16;;;;;;;21.90;8.60;;;;;;;;;;5074470;28;20381;-71
2023/08/05 03:20:43;;;;;;;23.05;8.18;;;;;;;;;;5074090;28;20115;-72
2023/08/05 03:23:10;;;;;;;22.30;9.65;;;;;;;;;;5073862;28;20040;-72
2023/08/05 03:25:37;;;;;;;18.40;9.30;;;;;;;;;;5074242;28;20360;-72
2023/08/05 03:28:03;;;;;;;23.83;9.85;;;;;;;;;;5072654;28;20146;-71
2023/08/05 03:30:29;;;;;;;23.27;8.77;;;;;;;;;;5073300;28;20048;-72
2023/08/05 03:32:55;;;;;;;26.23;9.70;;;;;;;;;;5073082;28;20033;-71
2023/08/05 03:35:21;;;;;;;20.83;8.50;;;;;;;;;;5073450;28;20029;-71
2023/08/05 03:37:48;;;;;;;26.73;8.77;;;;;;;;;;5072725;28;20394;-72
2023/08/05 03:40:14;;;;;;;24.83;10.13;;;;;;;;;;5072648;28;20367;-72
2023/08/05 03:42:40;;;;;;;20.92;8.98;;;;;;;;;;5072945;28;21329;-71
2023/08/05 03:45:07;;;;;;;17.08;8.25;;;15.80;99.90;;;;;;5073354;28;20040;-71
2023/08/05 03:47:34;;;;;;;20.83;9.05;;;;;;;;;;5073471;28;20047;-72
2023/08/05 03:50:00;;;;;;;22.05;8.93;;;;;;;;;;5073510;28;20036;-71
2023/08/05 03:52:27;;;;;;;21.33;9.27;;;;;;;;;;5056779;28;20040;-71
2023/08/05 03:54:53;;;;;;;24.73;9.18;;;;;;;;;;5072974;28;20041;-72
2023/08/05 03:57:19;;;;;;;24.33;8.25;;;;;;;;;;5057064;28;20036;-72
2023/08/05 03:59:47;;;;;;;20.52;8.77;;;;;;;;;;5073339;28;20123;-71
2023/08/05 04:02:14;;;;;;;19.00;9.05;;;;;;;;;;5071052;28;20044;-71
2023/08/05 04:04:42;;;;;;;23.33;9.27;;;;;;;;;;5072860;28;20162;-71
2023/08/05 04:07:08;;;;;;;23.60;9.48;;;16.20;99.90;;;;;;5070943;28;20068;-71
2023/08/05 04:09:35;;;;;;;25.77;9.32;;;16.20;99.90;;;;;;5056508;28;20075;-72
2023/08/05 04:12:04;;;;;;;21.15;8.77;;;;;;;;;;5073109;28;20496;-71
2023/08/05 04:14:30;;;;;;;23.95;9.13;;;;;;;;;;5073167;28;20052;-71
2023/08/05 04:16:57;;;;;;;18.75;9.15;;;;;;;;;;5071863;28;20036;-72
2023/08/05 04:19:23;;;;;;;21.30;9.45;;;15.50;99.90;;;;;;5056310;28;20366;-71
2023/08/05 04:21:52;;;;;;;23.88;9.25;;;;;;;;;;5073194;28;20040;-73
2023/08/05 04:24:22;;;;;;;24.30;9.63;;;;;;;;;;5056633;28;20481;-72
2023/08/05 04:26:50;;;;;;;19.65;9.38;;;;;;;;;;5072716;28;20570;-72
2023/08/05 04:29:18;;;;;;;21.85;9.25;;;;;;;;;;5072751;28;20089;-72
2023/08/05 04:31:44;;;;;;;19.15;8.90;;;;;;;;;;5088734;28;20107;-71
2023/08/05 04:34:10;;;;;;;19.60;9.27;;;;;;;;;;5070065;28;20047;-71
2023/08/05 04:36:37;;;;;;;23.55;9.73;;;;;;;;;;5072366;28;20048;-71
2023/08/05 04:39:03;;;;;;;23.05;8.82;;;;;;;;;;5038955;28;20036;-72
2023/08/05 04:41:30;;;;;;;17.27;8.38;;;;;;;;;;5072665;28;20079;-71
2023/08/05 04:43:58;;;;;;;21.88;8.38;;;;;;;;;;5072296;28;20037;-72
2023/08/05 04:46:25;;;;;;;24.25;8.90;;;;;;;;;;5072422;28;20048;-72
2023/08/05 04:48:51;;;;;;;19.70;8.23;;;;;;;;;;5055744;28;20036;-74
2023/08/05 04:51:17;;;;;;;22.85;8.85;;;;;;;;;;5072168;28;20044;-71
2023/08/05 04:53:44;;;;;;;31.13;9.45;;;;;;;;;;5072439;28;20453;-72
2023/08/05 04:56:10;;;;;;;23.27;8.52;;;;;;;;;;5071566;28;20071;-72
2023/08/05 04:58:36;;;;;;;22.70;8.82;;;;;;;;;;5071402;28;20440;-72
2023/08/05 05:01:02;;;;;;;21.20;8.93;;;;;;;;;;5071974;28;20052;-72
2023/08/05 05:03:29;;;;;;;32.47;8.82;;;;;;;;;;5072049;28;20029;-71
2023/08/05 05:05:55;;;;;;;20.65;9.57;;;;;;;;;;5055284;28;20047;-72
2023/08/05 05:08:23;;;;;;;26.90;9.32;;;;;;;;;;5072107;28;20040;-71
2023/08/05 05:10:49;;;;;;;18.55;8.38;;;;;;;;;;5072132;28;20041;-74
2023/08/05 05:13:15;;;;;;;21.80;9.25;;;;;;;;;;5071922;28;20041;-72
2023/08/05 05:15:41;;;;;;;17.88;8.57;;;;;;;;;;5071906;28;20102;-72
2023/08/05 05:18:07;;;;;;;17.38;7.72;;;;;;;;;;5055289;28;20048;-72
2023/08/05 05:20:34;;;;;;;19.02;7.85;;;16.00;99.90;;;;;;5054820;28;20044;-70
2023/08/05 05:23:00;;;;;;;15.55;8.18;;;;;;;;;;5071769;28;20399;-70
2023/08/05 05:25:26;;;;;;;19.85;7.80;;;;;;;;;;5071834;28;20125;-70
2023/08/05 05:27:52;;;;;;;16.80;7.72;;;;;;;;;;5071233;28;20039;-70
2023/08/05 05:30:18;;;;;;;17.67;8.30;;;;;;;;;;5054576;28;20542;-70
2023/08/05 05:32:44;;;;;;;23.17;7.82;;;;;;;;;;5071677;28;20466;-70
2023/08/05 05:35:10;;;;;;;17.73;7.38;;;;;;;;;;5054673;28;20090;-71
2023/08/05 05:37:37;;;;;;;18.23;7.78;;;;;;;;;;5054609;28;20512;-72
2023/08/05 05:40:03;;;;;;;24.63;7.82;;;;;;;;;;5071695;28;20044;-71
2023/08/05 05:42:29;;;;;;;24.80;8.20;;;15.50;99.90;;;;;;5071180;28;20052;-72
2023/08/05 05:44:55;;;;;;;19.13;7.97;;;;;;;;;;5071050;28;20123;-72
2023/08/05 05:47:21;;;;;;;23.80;7.40;;;;;;;;;;5071327;28;20513;-71
2023/08/05 05:49:48;;;;;;;18.10;7.32;;;;;;;;;;5054673;28;20033;-71
2023/08/05 05:52:16;;;;;;;18.17;7.55;;;;;;;;;;5071532;28;20036;-72
2023/08/05 05:54:46;;;;;;;17.55;7.22;;;;;;;;;;5071039;28;20055;-71
2023/08/05 05:57:12;;;;;;;19.02;7.07;;;;;;;;;;5038228;28;20085;-72
2023/08/05 05:59:42;;;;;;;17.52;7.32;;;;;;;;;;5070974;28;20052;-72
2023/08/05 06:02:08;;;;;;;19.02;7.80;;;;;;;;;;5055032;28;20055;-74
2023/08/05 06:04:34;;;;;;;17.35;7.13;;;;;;;;;;5053974;28;20086;-73
2023/08/05 06:07:02;;;;;;;14.55;6.93;;;;;;;;;;5070873;28;20123;-72
2023/08/05 06:09:29;;;;;;;17.45;7.00;;;;;;;;;;5070364;28;20071;-72
2023/08/05 06:11:56;;;;;;;17.17;7.55;;;;;;;;;;5070528;28;20068;-73
2023/08/05 06:14:22;;;;;;;19.05;7.40;;;;;;;;;;5070095;28;20044;-72
2023/08/05 06:16:48;;;;;;;14.65;7.13;;;;;;;;;;5070274;28;20046;-71
2023/08/05 06:19:14;;;;;;;16.40;8.55;;;;;;;;;;5069689;28;20471;-71
2023/08/05 06:21:40;;;;;;;15.98;7.97;;;;;;;;;;5053976;28;20044;-71
2023/08/05 06:24:06;;;;;;;18.75;7.30;;;;;;;;;;5070060;28;20159;-69
2023/08/05 06:26:33;;;;;;;21.67;8.93;;;;;;;;;;5070473;28;20040;-69
2023/08/05 06:28:59;;;;;;;16.20;6.47;;;;;;;;;;5070305;28;20041;-70
2023/08/05 06:31:25;;;;;;;18.23;7.68;;;;;;;;;;5070493;28;20043;-71
2023/08/05 06:33:51;;;;;;;24.75;8.88;;;;;;;;;;5070508;28;20038;-69
2023/08/05 06:36:18;;;;;;;20.42;6.72;;;;;;;;;;5070135;28;20037;-70
2023/08/05 06:38:44;;;;;;;16.90;6.30;;;;;;;;;;5070405;28;20032;-70
2023/08/05 06:41:10;;;;;;;12.07;6.32;;;;;;;;;;5069511;28;20040;-70
2023/08/05 06:43:36;;;;;;;19.08;6.90;;;;;;;;;;5070208;28;20607;-70
2023/08/05 06:46:02;;;;;;;18.25;7.05;;;;;;;;;;5070413;28;20427;-71
2023/08/05 06:48:28;;;;;;;16.58;5.95;;;;;;;;;;5070234;28;20032;-70
2023/08/05 06:50:54;;;;;;;15.52;6.28;;;;;;;;;;5070142;28;20036;-70
2023/08/05 06:53:20;;;;;;;12.40;5.78;;;;;;;;;;5070291;28;20097;-70
2023/08/05 06:55:47;;;;;;;16.55;6.05;;;;;;;;;;5053822;28;20037;-70
2023/08/05 06:58:13;;;;;;;13.25;6.85;;;;;;;;;;5053357;28;20048;-70
2023/08/05 07:00:39;;;;;;;12.73;6.43;;;;;;;;;;5070329;28;20076;-70
2023/08/05 07:03:05;;;;;;;14.85;6.20;;;;;;;;;;5053441;28;20037;-70
2023/08/05 07:05:31;;;;;;;14.45;6.38;;;;;;;;;;5070224;28;20139;-71
2023/08/05 07:07:57;;;;;;;10.23;5.80;;;;;;;;;;5037228;28;20120;-70
2023/08/05 07:10:23;;;;;;;18.27;6.00;;;17.00;99.90;;;;;;5070366;28;20076;-70
2023/08/05 07:12:49;;;;;;;15.73;6.13;;;;;;;;;;5070061;28;20040;-70
2023/08/05 07:15:16;;;;;;;13.80;6.32;;;;;;;;;;5053601;28;20485;-71
2023/08/05 07:17:42;;;;;;;13.23;5.63;;;;;;;;;;5070095;28;20047;-71
2023/08/05 07:20:08;;;;;;;10.57;5.63;;;;;;;;;;5053592;28;20047;-71
2023/08/05 07:22:35;;;;;;;14.90;6.03;;;;;;;;;;5053502;28;20055;-71
2023/08/05 07:25:01;;;;;;;17.33;6.28;;;;;;;;;;5070092;28;20127;-71
2023/08/05 07:27:27;;;;;;;15.60;6.55;;;17.40;99.90;;;;;;5069898;28;20044;-71
2023/08/05 07:29:54;;;;;;;17.52;6.63;;;;;;;;;;5069627;28;20158;-71
2023/08/05 07:32:20;;;;;;;12.50;6.25;;;;;;;;;;5069908;28;20048;-71
2023/08/05 07:34:47;;;;;;;15.93;6.30;;;;;;;;;;5053050;28;20226;-71
2023/08/05 07:37:14;;;;;;;18.92;6.57;;;;;;;;;;5070211;28;20124;-71
2023/08/05 07:39:46;;;;;;;12.75;6.20;;;;;;;;;;5068597;28;20143;-71
2023/08/05 07:42:14;;;;;;;21.08;6.18;;;;;;;;;;5053996;28;20056;-71
2023/08/05 07:44:40;;;;;;;14.68;6.55;;;17.40;99.90;;;;;;5069140;28;20063;-71
2023/08/05 07:47:06;;;;;;;9.98;5.30;;;;;;;;;;5069463;28;20040;-71
2023/08/05 07:49:32;;;;;;;17.50;6.10;;;;;;;;;;5069717;28;20083;-71
2023/08/05 07:51:58;;;;;;;14.32;6.05;;;;;;;;;;5054324;28;20032;-73
2023/08/05 07:54:25;;;;;;;10.18;5.65;;;;;;;;;;5056764;28;20068;-73
2023/08/05 07:56:52;;;;;;;19.27;6.30;;;;;;;;;;5073316;28;20049;-74
2023/08/05 07:59:20;;;;;;;12.93;5.65;;;;;;;;;;5073409;28;20044;-73
2023/08/05 08:01:46;;;;;;;11.98;5.20;;;;;;;;;;5072864;28;20090;-73
2023/08/05 08:04:14;;;;;;;11.48;5.13;;;;;;;;;;5071045;28;20058;-73
2023/08/05 08:06:43;;;;;;;13.40;5.15;;;;;;;;;;5054094;28;20037;-70
2023/08/05 08:09:13;;;;;;;13.13;5.35;;;;;;;;;;5071399;28;20048;-70
2023/08/05 08:11:40;;;;;;;13.70;5.60;;;;;;;;;;5073100;28;20087;-73
2023/08/05 08:14:05;;;;;;;14.00;4.85;;;18.00;99.90;;;;;;5073483;28;20051;-73
2023/08/05 08:16:32;;;;;;;13.65;6.03;;;;;;;;;;5073462;28;20040;-73
2023/08/05 08:18:58;;;;;;;16.30;6.18;;;;;;;;;;5073213;28;20134;-77
2023/08/05 08:21:24;;;;;;;16.17;5.70;;;;;;;;;;5073403;28;20032;-73
2023/08/05 08:23:50;;;;;;;13.23;5.85;;;;;;;;;;5072986;28;20127;-70
2023/08/05 08:26:16;;;;;;;15.48;5.38;;;;;;;;;;5072783;28;20032;-71
2023/08/05 08:28:42;;;;;;;10.15;5.30;;;;;;;;;;5072417;28;20041;-70
2023/08/05 08:31:09;;;;;;;14.00;5.47;;;;;;;;;;5072432;28;20038;-70
2023/08/05 08:33:34;;;;;;;12.70;5.28;;;18.60;99.90;;;;;;5052599;28;20041;-70
2023/08/05 08:36:00;;;;;;;17.98;5.20;;;18.90;99.90;;;;;;5055713;28;20398;-71
2023/08/05 08:38:26;;;;;;;14.18;5.22;;;17.40;99.90;;;;;;5073100;28;20046;-70
2023/08/05 08:40:55;;;;;;;11.65;5.13;;;18.70;99.90;;;;;;5073337;28;20059;-70
2023/08/05 08:43:22;;;;;;;12.38;5.68;;;;;;;;;;5073236;28;20048;-70
2023/08/05 08:45:51;;;;;;;15.82;5.60;;;18.80;99.90;;;;;;5073668;28;20040;-70
2023/08/05 08:48:17;;;;;;;12.80;5.30;;;;;;;;;;5073356;28;20036;-70
2023/08/05 08:50:44;;;;;;;16.73;6.03;;;;;;;;;;5056106;28;20091;-70
2023/08/05 08:53:13;;;;;;;17.58;5.38;;;18.80;99.90;;;;;;5059665;28;20048;-70
2023/08/05 08:55:41;;;;;;;14.15;5.65;;;19.80;99.90;;;;;;5068818;28;20044;-70
2023/08/05 08:58:07;;;;;;;21.83;6.38;;;19.70;99.90;;;;;;5064105;28;20103;-70
2023/08/05 09:00:33;;;;;;;15.05;5.50;;;;;;;;;;5053565;28;20494;-71
2023/08/05 09:03:04;;;;;;;11.45;5.20;;;18.80;99.90;;;;;;5035698;28;20040;-71
2023/08/05 09:05:53;;;;;;;10.63;5.23;;;;;;;;;;5073385;28;20044;-71
2023/08/05 09:08:20;;;;;;;11.32;4.85;;;19.70;99.90;;;;;;5062950;28;20048;-71
2023/08/05 09:10:46;;;;;;;14.20;4.90;;;18.10;99.90;;;;;;5056890;28;20141;-71
2023/08/05 09:13:16;;;;;;;11.23;4.72;;;;;;;;;;5056464;28;20072;-71
2023/08/05 09:15:41;;;;;;;10.27;4.70;;;18.30;99.90;;;;;;5056664;28;20079;-71
2023/08/05 09:18:07;;;;;;;15.50;5.00;;;;;;;;;;5056653;28;20040;-71
2023/08/05 09:20:34;;;;;;;7.07;4.68;;;;;;;;;;5073264;28;20150;-71
2023/08/05 09:23:03;;;;;;;9.82;4.80;;;19.40;99.90;;;;;;5056386;28;20416;-71
2023/08/05 09:25:30;;;;;;;12.85;5.55;;;19.30;99.90;;;;;;5074099;28;20044;-71
2023/08/05 09:27:56;;;;;;;15.57;5.50;;;;;;;;;;5056367;28;20127;-71
2023/08/05 09:30:24;;;;;;;14.30;5.40;;;19.40;99.90;;;;;;5072615;28;20380;-71
2023/08/05 09:32:54;;;;;;;18.75;4.88;;;19.40;99.90;;;;;;5039447;28;20037;-71
2023/08/05 09:35:20;;;;;;;12.25;5.32;;;18.60;99.90;;;;;;5072688;28;20355;-72
2023/08/05 09:37:48;;;;;;;13.15;5.30;;;;;;;;;;5072568;28;20102;-73
2023/08/05 09:40:26;;;;;;;8.85;5.30;;;19.60;99.90;;;;;;5072440;28;20041;-74
2023/08/05 09:42:54;;;;;;;12.95;4.97;;;19.10;99.90;;;;;;5072325;28;20059;-74
2023/08/05 09:45:21;;;;;;;13.32;5.10;;;19.70;99.90;;;;;;5072374;28;20136;-74
2023/08/05 09:47:49;;;;;;;11.68;5.18;;;18.60;99.90;;;;;;5055947;28;20032;-74
2023/08/05 09:50:16;;;;;;;18.67;5.47;;;18.70;99.90;;;;;;5072172;28;20474;-74
2023/08/05 09:52:43;;;;;;;15.73;5.63;;;18.80;99.90;;;;;;5055581;28;20044;-73
2023/08/05 09:55:13;;;;;;;9.65;5.10;;;19.60;99.90;;;;;;5072465;28;20048;-73
2023/08/05 09:57:41;;;;;;;11.43;4.88;;;18.50;99.90;;;;;;5055551;28;20051;-73
2023/08/05 10:00:11;;;;;;;11.75;5.18;;;19.30;99.90;;;;;;5055656;28;20051;-74
2023/08/05 10:02:39;;;;;;;18.38;6.05;;;19.40;99.90;;;;;;5072076;28;20052;-75
2023/08/05 10:05:05;;;;;;;10.80;5.20;;;20.30;99.90;;;;;;5071959;28;20047;-75
2023/08/05 10:07:31;;;;;;;12.70;5.20;;;20.10;99.90;;;;;;5072113;28;20032;-74
2023/08/05 10:10:00;;;;;;;8.93;5.72;;;;;;;;;;5072287;28;20045;-75
2023/08/05 10:12:29;;;;;;;10.95;5.07;;;19.40;99.90;;;;;;5039715;28;20047;-75
2023/08/05 10:14:57;;;;;;;11.90;5.57;;;19.60;99.90;;;;;;5072498;28;20051;-75
2023/08/05 10:17:24;;;;;;;9.10;5.65;;;18.70;99.90;;;;;;5071995;28;20115;-75
2023/08/05 10:19:53;;;;;;;13.32;5.32;;;20.00;99.90;;;;;;5071868;28;20048;-74
2023/08/05 10:22:24;;;;;;;11.93;5.63;;;19.60;99.90;;;;;;5052140;28;20048;-75
2023/08/05 10:24:56;;;;;;;13.55;5.15;;;19.10;99.90;;;;;;5071309;28;20110;-74
2023/08/05 10:27:43;;;;;;;10.18;5.40;;;19.10;99.90;;;;;;5072005;28;20037;-74
2023/08/05 10:30:13;;;;;;;15.73;5.55;;;19.90;99.90;;;;;;5072094;28;20119;-75
2023/08/05 10:32:51;;;;;;;14.25;5.68;;;19.90;99.90;;;;;;5071965;28;20032;-74
2023/08/05 10:35:43;;;;;;;20.25;5.47;;;19.30;99.90;;;;;;5071735;28;20078;-74
2023/08/05 10:38:16;;;;;;;15.13;5.15;;;19.60;99.90;;;;;;5066518;28;20520;-75
2023/08/05 10:40:42;;;;;;;9.77;5.18;;;;;;;;;;5068560;28;20040;-74
2023/08/05 10:43:09;;;;;;;10.07;5.20;;;19.80;99.90;;;;;;5066767;28;20432;-75
2023/08/05 10:45:40;;;;;;;12.75;5.68;;;20.70;99.90;;;;;;5071174;28;20166;-75
2023/08/05 10:48:08;;;;;;;11.38;5.28;;;19.90;99.90;;;;;;5071502;28;20501;-75
2023/08/05 10:50:39;;;;;;;17.98;5.57;;;19.80;99.90;;;;;;5054759;28;20059;-75
2023/08/05 10:53:12;;;;;;;13.18;5.28;;;20.80;99.90;;;;;;5071093;28;20036;-75
2023/08/05 10:55:53;;;;;;;9.77;4.97;;;19.70;99.90;;;;;;5071822;28;20047;-75
2023/08/05 10:58:30;;;;;;;13.13;5.82;;;20.20;99.90;;;;;;5071322;28;20040;-75
2023/08/05 11:01:00;;;;;;;9.77;5.05;;;20.90;99.90;;;;;;5070874;28;20044;-75
2023/08/05 11:03:26;;;;;;;9.05;4.97;;;;;;;;;;5054633;28;20036;-75
2023/08/05 11:05:54;;;;;;;9.68;5.22;;;20.60;99.90;;;;;;5071239;28;20109;-75
2023/08/05 11:08:23;;;;;;;12.23;5.35;;;20.30;99.90;;;;;;5070737;28;20040;-75
2023/08/05 11:10:49;;;;;;;10.98;5.50;;;;;;;;;;5054129;28;20047;-75
2023/08/05 11:13:18;;;;;;;11.73;5.30;;;20.00;99.90;;;;;;5070871;28;20044;-75
2023/08/05 11:16:11;;;;;;;12.75;6.32;;;20.30;99.90;;;;;;5071072;28;20039;-75
2023/08/05 11:18:39;;;;;;;15.13;6.10;;;20.80;99.90;;;;;;5047915;28;20049;-75
2023/08/05 11:21:07;;;;;;;11.25;6.20;;;21.00;99.90;;;;;;5070986;28;20052;-75
2023/08/05 11:23:35;;;;;;;14.27;6.20;;;19.50;99.90;;;;;;5071030;28;20044;-75
2023/08/05 11:26:01;;;;;;;10.43;5.80;;;20.50;99.90;;;;;;5054107;28;20041;-75
2023/08/05 11:28:29;;;;;;;10.85;6.10;;;19.30;99.90;;;;;;5074620;28;20029;-75
2023/08/05 11:30:55;;;;;;;10.68;5.35;;;;;;;;;;5074902;28;20044;-75
2023/08/05 11:33:21;;;;;;;9.25;5.30;;;21.00;99.90;;;;;;5074712;28;20041;-75
2023/08/05 11:35:48;;;;;;;9.85;4.47;;;19.30;99.90;;;;;;5074255;28;20053;-75
2023/08/05 11:38:18;;;;;;;7.80;4.97;;;20.50;99.10;;;;;;5074661;28;20088;-75
2023/08/05 11:40:46;;;;;;;11.15;6.18;;;20.90;99.90;;;;;;5075145;28;20102;-74
2023/08/05 11:43:14;;;;;;;7.93;4.82;;;20.60;99.90;;;;;;5057632;28;20052;-75
2023/08/05 11:45:40;;;;;;;9.20;5.00;;;21.20;99.90;;;;;;5075919;28;20055;-75
2023/08/05 11:48:26;;;;;;;11.13;6.25;;;20.40;99.90;;;;;;5074532;28;20094;-75
2023/08/05 11:51:00;;;;;;;10.88;5.72;;;20.20;99.90;;;;;;5074129;28;20186;-75
2023/08/05 11:53:27;;;;;;;10.85;5.47;;;20.20;99.90;;;;;;5054418;28;20036;-74
2023/08/05 11:55:53;;;;;;;12.63;6.38;;;20.10;99.90;;;;;;5048811;28;20127;-74
2023/08/05 11:58:20;;;;;;;11.05;5.85;;;20.70;99.90;;;;;;5024678;28;20540;-75
2023/08/05 12:00:48;;;;;;;10.65;6.22;;;20.90;99.90;;;;;;5074533;28;20048;-75
2023/08/05 12:03:14;;;;;;;15.40;6.10;;;20.70;99.90;;;;;;5057350;28;20037;-75
2023/08/05 12:05:41;;;;;;;9.80;6.20;;;21.10;99.90;;;;;;5055317;28;20068;-75
2023/08/05 12:08:07;;;;;;;10.35;5.80;;;20.70;99.90;;;;;;5102628;28;20036;-74
2023/08/05 12:10:33;;;;;;;14.82;6.35;;;;;;;;;;5075182;28;20043;-74
2023/08/05 12:13:03;;;;;;;11.40;6.15;;;21.00;99.90;;;;;;5074298;28;20371;-75
2023/08/05 12:15:30;;;;;;;11.10;6.30;;;;;;;;;;5074318;28;20051;-75
2023/08/05 12:17:56;;;;;;;13.45;6.25;;;19.60;99.90;;;;;;5061314;28;20067;-75
2023/08/05 12:20:24;;;;;;;11.15;6.10;;;20.50;99.90;;;;;;5056487;28;20040;-75
2023/08/05 12:22:50;;;;;;;11.77;6.63;;;;;;;;;;5071921;28;20106;-74
2023/08/05 12:25:16;;;;;;;12.90;6.53;;;21.20;99.90;;;;;;5071966;28;20040;-75
2023/08/05 12:27:42;;;;;;;14.02;7.10;;;21.10;99.90;;;;;;5055553;28;20064;-71
2023/08/05 12:30:09;;;;;;;15.77;7.57;;;20.30;99.90;;;;;;5074019;28;20078;-70
2023/08/05 12:32:36;;;;;;;9.88;6.68;;;19.80;99.90;;;;;;5073743;28;20037;-70
2023/08/05 12:35:06;;;;;;;12.90;7.20;;;19.20;99.90;;;;;;5073723;28;20080;-71
2023/08/05 12:37:36;;;;;;;13.77;7.57;;;21.00;99.90;;;;;;5073162;28;20059;-71
2023/08/05 12:40:06;;;;;;;13.93;7.63;;;20.00;99.60;;;;;;5071883;28;20101;-71
2023/08/05 12:42:33;;;;;;;15.73;8.00;;;19.20;99.90;;;;;;5073062;28;20517;-71
2023/08/05 12:45:03;;;;;;;14.13;7.32;;;19.10;99.90;;;;;;5057145;28;20041;-82
2023/08/05 12:47:29;;;;;;;23.95;7.40;;;;;;;;;;5055252;28;20037;-71
2023/08/05 12:49:55;;;;;;;10.68;6.65;;;;;;;;;;5073421;28;20033;-72
2023/08/05 12:52:21;;;;;;;16.20;6.70;;;20.80;99.90;;;;;;5072831;28;20106;-71
2023/08/05 12:54:47;;;;;;;14.57;7.00;;;;;;;;;;5072998;28;20450;-71
2023/08/05 12:57:13;;;;;;;14.27;6.88;;;;;;;;;;5056413;28;20040;-71
2023/08/05 12:59:39;;;;;;;14.00;7.00;;;;;;;;;;5073381;28;20040;-71
2023/08/05 13:02:05;;;;;;;14.70;6.75;;;20.60;99.90;;;;;;5073285;28;20083;-72
2023/08/05 13:04:31;;;;;;;16.13;7.45;;;20.90;99.90;;;;;;5073253;28;20494;-72
2023/08/05 13:06:57;;;;;;;16.52;8.75;;;20.20;99.90;;;;;;5053206;28;20063;-71
2023/08/05 13:09:22;;;;;;;17.00;9.48;;;19.90;99.90;;;;;;5073383;28;20043;-71
2023/08/05 13:11:48;;;;;;;15.95;8.88;;;;;;;;;;5072967;28;20080;-71
2023/08/05 13:14:14;;;;;;;18.42;8.60;;;19.10;99.90;;;;;;5073201;28;20048;-71
2023/08/05 13:16:41;;;;;;;17.25;9.40;;;;;;;;;;5072720;28;20037;-72
2023/08/05 13:19:07;;;;;;;16.42;9.50;;;19.90;99.90;;;;;;5072930;28;20045;-71
2023/08/05 13:21:34;;;;;;;12.60;8.30;;;18.80;99.90;;;;;;5072520;28;20037;-71
2023/08/05 13:24:02;;;;;;;6.25;3.33;;;;;;;;;;5072318;28;20037;-71
2023/08/05 13:26:28;;;;;;;5.88;2.90;;;;;;;;;;5072561;28;20040;-71
2023/08/05 13:28:55;;;;;;;4.50;3.00;;;;;;;;;;5071985;28;20116;-71
2023/08/05 13:31:20;;;;;;;5.85;2.80;;;19.10;99.90;;;;;;5072913;28;20429;-71
2023/08/05 13:33:46;;;;;;;3.80;2.60;;;19.70;99.90;;;;;;5056136;28;20032;-71
2023/08/05 13:36:12;;;;;;;4.57;3.50;;;;;;;;;;5054646;28;20044;-71
2023/08/05 13:38:38;;;;;;;8.23;3.58;;;18.40;99.90;;;;;;5070877;28;20048;-70
2023/08/05 13:41:04;;;;;;;10.10;3.83;;;;;;;;;;5071216;28;20509;-69
2023/08/05 13:43:30;;;;;;;10.95;3.40;;;18.80;99.90;;;;;;5052548;28;20056;-69
2023/08/05 13:45:56;;;;;;;10.70;3.95;;;18.30;99.90;;;;;;5054289;28;20071;-69